sensor_id;sensor_type;location;lat;lon;timestamp;pressure;altitude;pressure_sealevel;temperature;humidity
68199;BME280;55021;51.554;17.044;2023-02-14T00:03:48;102614.97;;;5.81;72.47
68199;BME280;55021;51.554;17.044;2023-02-14T00:18:51;102629.44;;;5.97;71.83
68199;BME280;55021;51.554;17.044;2023-02-14T00:33:53;102637.41;;;5.99;72.15
68199;BME280;55021;51.554;17.044;2023-02-14T00:48:56;102645.59;;;5.96;71.75
68199;BME280;55021;51.554;17.044;2023-02-14T01:03:58;102635.31;;;5.66;73.40
68199;BME280;55021;51.554;17.044;2023-02-14T01:19:01;102633.78;;;5.81;73.19
68199;BME280;55021;51.554;17.044;2023-02-14T01:34:03;102622.75;;;5.87;73.31
68199;BME280;55021;51.554;17.044;2023-02-14T01:49:09;102622.38;;;5.95;72.48
68199;BME280;55021;51.554;17.044;2023-02-14T02:04:16;102617.88;;;5.95;72.20
68199;BME280;55021;51.554;17.044;2023-02-14T02:19:51;102613.03;;;6.03;72.56
68199;BME280;55021;51.554;17.044;2023-02-14T02:35:25;102607.50;;;6.06;72.42
68199;BME280;55021;51.554;17.044;2023-02-14T02:50:37;102581.34;;;5.73;73.39
68199;BME280;55021;51.554;17.044;2023-02-14T03:05:42;102574.94;;;6.12;71.97
68199;BME280;55021;51.554;17.044;2023-02-14T03:20:49;102577.22;;;6.21;72.05
68199;BME280;55021;51.554;17.044;2023-02-14T03:35:58;102575.47;;;5.83;73.04
68199;BME280;55021;51.554;17.044;2023-02-14T03:51:03;102603.84;;;5.89;72.90
68199;BME280;55021;51.554;17.044;2023-02-14T04:06:10;102602.09;;;5.88;72.96
68199;BME280;55021;51.554;17.044;2023-02-14T04:21:12;102597.09;;;5.80;72.85
68199;BME280;55021;51.554;17.044;2023-02-14T04:36:15;102595.88;;;5.87;73.27
68199;BME280;55021;51.554;17.044;2023-02-14T04:51:18;102589.28;;;5.94;73.07
68199;BME280;55021;51.554;17.044;2023-02-14T05:06:21;102587.94;;;5.65;74.20
68199;BME280;55021;51.554;17.044;2023-02-14T05:21:23;102564.66;;;6.03;71.80
68199;BME280;55021;51.554;17.044;2023-02-14T05:36:26;102594.63;;;6.13;71.33
68199;BME280;55021;51.554;17.044;2023-02-14T05:51:28;102603.72;;;5.73;74.01
68199;BME280;55021;51.554;17.044;2023-02-14T06:06:30;102616.81;;;5.60;73.95
68199;BME280;55021;51.554;17.044;2023-02-14T06:21:32;102626.31;;;5.49;74.31
68199;BME280;55021;51.554;17.044;2023-02-14T06:36:35;102627.94;;;5.72;73.68
68199;BME280;55021;51.554;17.044;2023-02-14T06:51:38;102642.78;;;5.99;72.52
68199;BME280;55021;51.554;17.044;2023-02-14T07:06:40;102651.25;;;6.28;70.75
68199;BME280;55021;51.554;17.044;2023-02-14T07:21:42;102656.09;;;6.20;72.01
68199;BME280;55021;51.554;17.044;2023-02-14T07:36:45;102654.75;;;6.31;72.53
68199;BME280;55021;51.554;17.044;2023-02-14T07:51:47;102654.28;;;6.21;71.81
68199;BME280;55021;51.554;17.044;2023-02-14T08:06:51;102675.78;;;6.21;72.76
68199;BME280;55021;51.554;17.044;2023-02-14T08:21:53;102674.19;;;6.54;71.34
68199;BME280;55021;51.554;17.044;2023-02-14T08:36:56;102675.81;;;6.75;70.25
68199;BME280;55021;51.554;17.044;2023-02-14T08:51:58;102679.50;;;6.74;70.85
68199;BME280;55021;51.554;17.044;2023-02-14T09:07:00;102669.06;;;6.67;70.39
68199;BME280;55021;51.554;17.044;2023-02-14T09:22:04;102687.69;;;7.24;67.88
68199;BME280;55021;51.554;17.044;2023-02-14T09:37:08;102690.25;;;6.74;69.54
68199;BME280;55021;51.554;17.044;2023-02-14T09:52:13;102670.91;;;7.19;67.51
68199;BME280;55021;51.554;17.044;2023-02-14T10:07:21;102689.13;;;7.66;67.64
68199;BME280;55021;51.554;17.044;2023-02-14T10:22:33;102672.59;;;7.39;67.46
68199;BME280;55021;51.554;17.044;2023-02-14T10:37:52;102668.56;;;7.80;65.77
68199;BME280;55021;51.554;17.044;2023-02-14T10:53:05;102664.28;;;8.09;64.23
68199;BME280;55021;51.554;17.044;2023-02-14T11:08:20;102654.41;;;7.92;65.26
68199;BME280;55021;51.554;17.044;2023-02-14T11:23:25;102644.22;;;8.46;63.01
68199;BME280;55021;51.554;17.044;2023-02-14T11:38:29;102643.31;;;7.98;62.29
68199;BME280;55021;51.554;17.044;2023-02-14T11:53:42;102616.03;;;8.20;58.45
68199;BME280;55021;51.554;17.044;2023-02-14T12:08:45;102567.19;;;8.56;57.02
68199;BME280;55021;51.554;17.044;2023-02-14T12:23:55;102611.84;;;8.77;57.06
68199;BME280;55021;51.554;17.044;2023-02-14T12:39:07;102595.28;;;8.83;57.83
68199;BME280;55021;51.554;17.044;2023-02-14T12:54:52;102600.13;;;8.31;59.52
68199;BME280;55021;51.554;17.044;2023-02-14T13:10:38;102578.97;;;9.00;56.34
68199;BME280;55021;51.554;17.044;2023-02-14T13:25:49;102581.63;;;8.86;56.97
68199;BME280;55021;51.554;17.044;2023-02-14T13:40:55;102582.66;;;8.38;59.24
68199;BME280;55021;51.554;17.044;2023-02-14T13:55:58;102564.44;;;7.79;60.60
68199;BME280;55021;51.554;17.044;2023-02-14T14:11:02;102570.72;;;7.95;60.07
68199;BME280;55021;51.554;17.044;2023-02-14T14:26:32;102573.84;;;8.03;58.98
68199;BME280;55021;51.554;17.044;2023-02-14T14:41:38;102568.28;;;8.38;59.74
68199;BME280;55021;51.554;17.044;2023-02-14T14:56:48;102532.13;;;8.11;59.24
68199;BME280;55021;51.554;17.044;2023-02-14T15:11:52;102559.22;;;7.76;60.87
68199;BME280;55021;51.554;17.044;2023-02-14T15:26:55;102534.13;;;8.07;58.52
68199;BME280;55021;51.554;17.044;2023-02-14T15:41:58;102536.53;;;8.12;59.42
68199;BME280;55021;51.554;17.044;2023-02-14T15:57:00;102535.31;;;7.70;60.57
68199;BME280;55021;51.554;17.044;2023-02-14T16:12:25;102543.03;;;7.76;61.08
68199;BME280;55021;51.554;17.044;2023-02-14T16:27:30;102527.75;;;7.28;61.72
68199;BME280;55021;51.554;17.044;2023-02-14T16:42:33;102542.38;;;6.90;62.95
68199;BME280;55021;51.554;17.044;2023-02-14T16:57:38;102523.50;;;6.56;63.03
68199;BME280;55021;51.554;17.044;2023-02-14T22:14:58;102450.53;;;1.58;76.61
68199;BME280;55021;51.554;17.044;2023-02-14T22:45:37;102337.19;;;0.28;77.09
68199;BME280;55021;51.554;17.044;2023-02-14T23:00:43;102325.59;;;0.61;76.42
68199;BME280;55021;51.554;17.044;2023-02-14T23:16:07;102426.34;;;1.36;75.55
68199;BME280;55021;51.554;17.044;2023-02-14T23:31:16;102308.09;;;-0.09;78.07
68199;BME280;55021;51.554;17.044;2023-02-14T23:46:19;102323.00;;;0.29;76.36
